Terminal Aerodrome Forecast
Issued by NWS

Home | Current Version | Previous Version | Text Only | Print | Product List | Glossary On
Versions: 1 2 3 4 5 6 7 8 9 10 11 12 13 14
000
FTUS43 KAPX 171700
TAFAPN
TAF
KAPN 171721Z 1718/1818 13015G24KT P6SM SCT060 BKN100
     FM172300 15008KT P6SM OVC050
     FM180500 26005KT P6SM OVC030
     FM181400 31009KT P6SM SCT040=

USA.gov is the U.S. government's official web portal to all federal, state and local government web resources and services.